METAR AND TAF INFORMATION
METAR FOR ENRO
ADDS - METARS form results

(0854 UTC 16 May 2022)
Data provider http://aviationweather.gov/metar/data/
 
METAR text: ENRO 160850Z 33007KT 9999 BKN034 02/M04 Q1025
Conditions at: ENRO (ROROS AIRPORT , NO) observed 0850 UTC 16 May 2022
Temperature: 2.0°C (36°F)
Dewpoint: -4.0°C (25°F) [RH = 64%]
Pressure (altimeter): 30.27 inches Hg (1025.0 mb)
Winds: from the NNW (330 degrees) at 8 MPH (7 knots; 3.6 m/s)
Visibility: 6 or more miles (10+ km)
Ceiling: 3400 feet AGL
Clouds: broken clouds at 3400 feet AGL
Weather: no significant weather observed at this time

METAR text: ENRO 160820Z 32008KT 9999 BKN034 02/M04 Q1025
Conditions at: ENRO (ROROS AIRPORT , NO) observed 0820 UTC 16 May 2022
Temperature: 2.0°C (36°F)
Dewpoint: -4.0°C (25°F) [RH = 64%]
Pressure (altimeter): 30.27 inches Hg (1025.0 mb)
Winds: from the NW (320 degrees) at 9 MPH (8 knots; 4.1 m/s)
Visibility: 6 or more miles (10+ km)
Ceiling: 3400 feet AGL
Clouds: broken clouds at 3400 feet AGL
Weather: no significant weather observed at this time

Forecast for: ENRO (ROROS AIRPORT , NO)
Text: TAF ENRO 160800Z 1609/1618 33008KT 9999 BKN030
Forecast period: 0900 to 1800 UTC 16 May 2022
Forecast type: FROM: standard forecast or significant change
Winds: from the NNW (330 degrees) at 9 MPH (8 knots; 4.1 m/s)
Visibility: 6 or more miles (10+ km)
Ceiling: 3000 feet AGL
Clouds: broken clouds at 3000 feet AGL
Weather: no significant weather forecast for this period

 AIRPORT MAP

 RUNWAY INFORMATION
Runway 14 Runway length 5643 ft Runway width 131 ft
Runway elevation 2051 ft Runway displaced threshold 197 ft Runway heading 136
Runway 32 Runway length 5643 ft Runway width 131 ft
Runway elevation 2051 ft Runway displaced threshold 459 ft Runway heading 316

 AIRPORT FREQUENCIES
Type TWR Name TWR Frequency 120.4 MHZ

 AIRPORT NEAR NAVIGATION AIDS
Type NDB Name Rambu Frequency 352 KHZ





Powered by Virtual Airlines Manager

Maps by Rafael Santos